Time;durP1;ratioP1;P1;durP2;ratioP2;P2;SDS_P1;SDS_P2;PMS_P1;PMS_P2;Temp;Humidity;BMP_temperature;BMP_pressure;BME280_temperature;BME280_humidity;BME280_pressure;Samples;Min_cycle;Max_cycle;Signal;HPM_P1;HPM_P2
2023/01/19 00:02:49;;;;;;;5.07;3.00;;;-2.10;99.90;;;;;;20912453;28;20052;-57
2023/01/19 00:12:51;;;;;;;5.38;2.80;;;-2.00;99.90;;;;;;20912608;28;20037;-56
2023/01/19 00:22:52;;;;;;;3.78;2.22;;;-1.90;99.90;;;;;;20893238;28;20401;-57
2023/01/19 00:32:54;;;;;;;3.00;2.00;;;-1.80;99.90;;;;;;20909948;28;20165;-55
2023/01/19 00:42:56;;;;;;;3.50;1.77;;;-1.70;99.90;;;;;;20909716;28;20032;-57
2023/01/19 00:52:59;;;;;;;3.50;1.88;;;-1.70;99.90;;;;;;20908373;28;20025;-55
2023/01/19 01:03:01;;;;;;;1.83;1.27;;;-1.70;99.90;;;;;;20914866;28;20421;-57
2023/01/19 01:13:02;;;;;;;1.88;1.02;;;-1.70;99.90;;;;;;20918553;28;20044;-57
2023/01/19 01:23:04;;;;;;;2.67;1.33;;;-1.70;99.90;;;;;;20972898;28;20074;-57
2023/01/19 01:33:07;;;;;;;1.77;1.00;;;-1.60;99.90;;;;;;20987992;28;20028;-57
2023/01/19 01:43:13;;;;;;;2.13;1.05;;;-1.60;99.90;;;;;;20913520;28;20040;-56
2023/01/19 01:53:15;;;;;;;1.67;1.00;;;-1.70;99.90;;;;;;20935522;28;20033;-57
2023/01/19 02:03:17;;;;;;;1.80;1.08;;;-1.80;99.90;;;;;;20912539;28;20067;-57
2023/01/19 02:13:19;;;;;;;1.88;1.00;;;-1.80;99.90;;;;;;20984820;28;20074;-57
2023/01/19 02:23:55;;;;;;;1.90;1.20;;;-1.90;99.90;;;;;;20985277;28;20477;-58
2023/01/19 02:33:59;;;;;;;3.08;1.15;;;-1.90;99.90;;;;;;20950863;28;20044;-59
2023/01/19 02:44:01;;;;;;;3.17;1.50;;;-2.00;99.90;;;;;;20885413;28;20466;-57
2023/01/19 02:54:20;;;;;;;4.30;1.05;;;-1.90;99.90;;;;;;20976040;28;20417;-57
2023/01/19 03:05:00;;;;;;;1.73;1.00;;;-2.10;99.90;;;;;;20983870;28;20041;-57
2023/01/19 03:15:17;;;;;;;1.80;0.95;;;-2.00;99.90;;;;;;20817807;28;20025;-56
2023/01/19 03:25:20;;;;;;;1.77;0.80;;;-2.20;99.90;;;;;;20831609;28;20471;-55
2023/01/19 03:35:25;;;;;;;1.20;0.70;;;-2.30;99.90;;;;;;20910999;28;20091;-56
2023/01/19 03:45:27;;;;;;;1.10;0.70;;;-2.20;99.90;;;;;;20917587;28;20085;-58
2023/01/19 03:55:28;;;;;;;1.08;0.70;;;-2.20;99.90;;;;;;20922880;28;20379;-57
2023/01/19 04:05:30;;;;;;;1.45;0.90;;;-2.20;99.90;;;;;;20957698;28;20036;-56
2023/01/19 04:15:32;;;;;;;1.08;0.60;;;-2.20;99.90;;;;;;20994585;28;20397;-56
2023/01/19 04:25:33;;;;;;;1.75;0.50;;;-2.30;99.90;;;;;;20994161;28;20021;-57
2023/01/19 04:35:35;;;;;;;1.50;0.90;;;-2.40;99.90;;;;;;20946143;28;20493;-56
2023/01/19 04:45:37;;;;;;;1.05;0.47;;;-2.40;99.90;;;;;;20914636;28;20028;-57
2023/01/19 04:55:38;;;;;;;0.70;0.40;;;-2.50;99.90;;;;;;20992319;28;20045;-56
2023/01/19 05:05:40;;;;;;;1.40;0.55;;;-2.50;99.90;;;;;;20980994;28;20452;-57
2023/01/19 05:15:41;;;;;;;1.15;0.50;;;-2.40;99.90;;;;;;20894261;28;20036;-56
2023/01/19 05:25:43;;;;;;;0.80;0.47;;;-2.40;99.90;;;;;;20990024;28;20527;-57
2023/01/19 05:35:45;;;;;;;1.00;0.45;;;-2.40;99.90;;;;;;20941694;28;20037;-56
2023/01/19 05:45:46;;;;;;;1.23;0.50;;;-2.40;99.90;;;;;;20905045;28;20060;-58
2023/01/19 05:55:48;;;;;;;0.95;0.30;;;-2.40;99.90;;;;;;20904494;28;20036;-56
2023/01/19 06:05:49;;;;;;;0.75;0.40;;;-2.40;99.90;;;;;;20885275;28;20040;-57
2023/01/19 06:15:59;;;;;;;0.70;0.38;;;-2.50;99.90;;;;;;20903248;28;20040;-57
2023/01/19 06:26:01;;;;;;;0.93;0.30;;;-2.50;99.90;;;;;;20902620;28;20180;-57
2023/01/19 06:36:03;;;;;;;1.25;0.50;;;-2.50;99.90;;;;;;20901639;28;20029;-57
2023/01/19 06:46:05;;;;;;;0.80;0.40;;;-2.50;99.90;;;;;;20899377;28;20525;-55
2023/01/19 06:56:08;;;;;;;1.63;0.60;;;-2.60;99.90;;;;;;20907736;28;20091;-56
2023/01/19 07:06:10;;;;;;;0.98;0.60;;;-2.70;99.90;;;;;;20968155;28;20451;-57
2023/01/19 07:16:13;;;;;;;1.08;0.40;;;-2.80;99.90;;;;;;20998652;28;20444;-57
2023/01/19 07:26:17;;;;;;;1.38;0.55;;;-2.90;99.90;;;;;;20998684;28;20060;-58
2023/01/19 07:36:18;;;;;;;0.85;0.55;;;-3.00;99.90;;;;;;20948804;28;20095;-56
2023/01/19 07:46:20;;;;;;;0.77;0.47;;;-2.90;99.90;;;;;;20926558;28;20106;-58
2023/01/19 07:56:23;;;;;;;1.30;0.40;;;-3.00;99.90;;;;;;20981582;28;20041;-57
2023/01/19 08:06:32;;;;;;;2.92;0.43;;;-3.10;99.90;;;;;;20964618;28;20081;-57
2023/01/19 08:16:35;;;;;;;1.55;0.70;;;-3.10;99.90;;;;;;20994787;28;20043;-57
2023/01/19 08:26:37;;;;;;;1.90;0.70;;;-3.50;99.90;;;;;;20994350;28;20032;-57
2023/01/19 08:36:39;;;;;;;4.63;0.70;;;-4.00;99.90;;;;;;20946487;28;20028;-59
2023/01/19 08:46:41;;;;;;;1.20;0.60;;;-3.90;99.90;;;;;;20907040;28;20036;-57
2023/01/19 08:56:42;;;;;;;1.75;0.80;;;-3.80;99.90;;;;;;20991839;28;20052;-55
2023/01/19 09:06:44;;;;;;;1.33;0.60;;;-3.80;99.90;;;;;;20954834;28;20037;-56
2023/01/19 09:16:46;;;;;;;2.47;0.60;;;-3.90;99.90;;;;;;20920259;28;20040;-57
2023/01/19 09:26:47;;;;;;;3.90;0.82;;;-4.00;99.90;;;;;;20920903;28;20040;-57
2023/01/19 09:36:49;;;;;;;2.00;0.90;;;-4.10;99.90;;;;;;20940092;28;20603;-58
2023/01/19 09:46:51;;;;;;;1.63;0.47;;;-4.20;99.90;;;;;;20888163;28;20103;-56
2023/01/19 09:56:53;;;;;;;1.77;0.90;;;-4.10;99.90;;;;;;20905652;28;20068;-59
2023/01/19 10:07:31;;;;;;;15.15;0.90;;;-4.00;99.90;;;;;;20903670;28;20037;-58
2023/01/19 10:18:01;;;;;;;1.58;0.75;;;-3.90;99.90;;;;;;20923299;28;20036;-57
2023/01/19 10:28:03;;;;;;;1.80;0.60;;;-3.70;99.90;;;;;;20985834;28;20033;-58
2023/01/19 10:38:10;;;;;;;1.42;0.65;;;-3.40;99.90;;;;;;20952937;28;20025;-57
2023/01/19 10:48:12;;;;;;;1.10;0.57;;;-3.50;99.90;;;;;;20911323;28;20580;-60
2023/01/19 10:58:29;;;;;;;1.85;0.90;;;-3.50;99.90;;;;;;20930274;28;20056;-58
2023/01/19 11:08:31;;;;;;;1.40;0.68;;;-3.30;99.90;;;;;;20922954;28;20028;-58
2023/01/19 11:18:38;;;;;;;1.00;0.40;;;-3.30;99.90;;;;;;20846804;28;20041;-56
2023/01/19 11:28:46;;;;;;;1.98;0.68;;;-3.50;99.90;;;;;;20927858;28;20045;-58
2023/01/19 11:38:53;;;;;;;2.13;0.77;;;-3.60;99.90;;;;;;20903287;28;20466;-58
2023/01/19 11:49:14;;;;;;;1.52;0.60;;;-3.80;99.90;;;;;;20915012;28;20103;-58
2023/01/19 11:59:16;;;;;;;1.40;0.63;;;-3.80;99.90;;;;;;20993397;28;20564;-60
2023/01/19 12:09:22;;;;;;;2.10;0.52;;;-3.70;99.90;;;;;;20940202;28;20451;-58
2023/01/19 12:19:37;;;;;;;1.83;0.60;;;-3.20;99.90;;;;;;20994855;28;20039;-58
2023/01/19 12:29:40;;;;;;;1.00;0.40;;;-1.70;99.90;;;;;;20995188;28;20028;-57
2023/01/19 12:39:47;;;;;;;1.55;0.57;;;-0.80;99.90;;;;;;20947634;28;20037;-57
2023/01/19 12:49:53;;;;;;;1.33;0.70;;;-1.90;99.90;;;;;;20909894;28;20028;-57
2023/01/19 12:59:56;;;;;;;1.27;0.70;;;-2.40;99.90;;;;;;20890253;28;20045;-58
2023/01/19 13:09:58;;;;;;;1.35;0.60;;;-2.70;99.90;;;;;;20908436;28;20033;-58
2023/01/19 13:20:28;;;;;;;1.40;0.65;;;-3.00;99.90;;;;;;20907213;28;20071;-58
2023/01/19 13:30:33;;;;;;;0.83;0.50;;;-3.00;99.90;;;;;;20883418;28;20056;-59
2023/01/19 13:40:39;;;;;;;1.30;0.68;;;-3.20;99.90;;;;;;20904247;28;20067;-58
2023/01/19 13:50:41;;;;;;;1.20;0.70;;;-3.10;99.90;;;;;;20904878;28;20037;-59
2023/01/19 14:00:45;;;;;;;1.85;0.70;;;-3.10;99.90;;;;;;20914735;28;20417;-60
2023/01/19 14:11:00;;;;;;;1.52;0.70;;;-3.20;99.90;;;;;;20985363;28;20418;-60
2023/01/19 14:21:11;;;;;;;0.95;0.68;;;-3.30;99.90;;;;;;20968339;28;20432;-61
2023/01/19 14:31:26;;;;;;;0.75;0.50;;;-3.10;99.90;;;;;;20929662;28;20083;-60
2023/01/19 14:41:43;;;;;;;2.40;0.60;;;-3.30;99.90;;;;;;20902283;28;20474;-59
2023/01/19 14:51:47;;;;;;;1.25;0.55;;;-3.50;99.90;;;;;;20902040;28;20095;-58
2023/01/19 15:01:49;;;;;;;1.77;0.70;;;-3.60;99.90;;;;;;20900937;28;20111;-58
2023/01/19 15:11:51;;;;;;;2.40;0.80;;;-3.60;99.90;;;;;;20901112;28;20067;-58
2023/01/19 15:21:53;;;;;;;1.20;0.60;;;-3.60;99.90;;;;;;20974863;28;20066;-59
2023/01/19 15:31:54;;;;;;;1.23;0.70;;;-3.60;99.90;;;;;;20980261;28;20029;-59
2023/01/19 15:41:59;;;;;;;2.03;0.60;;;-3.70;99.90;;;;;;20933639;28;20085;-60
2023/01/19 15:52:01;;;;;;;0.88;0.50;;;-3.90;99.90;;;;;;20930241;28;20377;-61
2023/01/19 16:02:03;;;;;;;1.58;0.60;;;-4.00;99.90;;;;;;20909525;28;20052;-60
2023/01/19 16:12:05;;;;;;;1.95;0.70;;;-4.10;99.90;;;;;;20912628;28;20029;-59
2023/01/19 16:22:09;;;;;;;1.83;0.60;;;-4.00;99.90;;;;;;20901599;28;20034;-58
2023/01/19 16:32:10;;;;;;;1.25;0.60;;;-3.80;99.90;;;;;;20849232;28;20041;-58
2023/01/19 16:42:12;;;;;;;3.15;0.80;;;-3.80;99.90;;;;;;20903697;28;20037;-59
2023/01/19 16:52:14;;;;;;;2.88;0.63;;;-3.90;99.90;;;;;;20972814;28;20040;-58
2023/01/19 17:02:15;;;;;;;3.50;0.90;;;-3.90;99.90;;;;;;20926863;28;20056;-59
2023/01/19 17:12:18;;;;;;;2.03;0.40;;;-3.90;99.90;;;;;;20889847;28;20043;-58
2023/01/19 17:22:20;;;;;;;1.30;0.68;;;-3.90;99.90;;;;;;20879853;28;20029;-58
2023/01/19 17:32:21;;;;;;;2.95;0.70;;;-3.90;99.90;;;;;;20845252;28;20021;-58
2023/01/19 17:42:23;;;;;;;1.33;0.73;;;-3.80;99.90;;;;;;20845564;28;20084;-58
2023/01/19 17:52:25;;;;;;;1.20;0.60;;;-3.80;99.90;;;;;;20887053;28;20033;-57
2023/01/19 18:02:26;;;;;;;1.33;0.60;;;-3.80;99.90;;;;;;20881632;28;20048;-58
2023/01/19 18:12:28;;;;;;;1.00;0.60;;;-3.90;99.90;;;;;;20864985;28;20363;-58
2023/01/19 18:22:31;;;;;;;1.42;0.60;;;-4.00;99.90;;;;;;20886373;28;20036;-58
2023/01/19 18:32:33;;;;;;;0.85;0.40;;;-3.80;99.90;;;;;;20927280;28;20397;-58
2023/01/19 18:42:35;;;;;;;1.38;0.70;;;-3.90;99.90;;;;;;20915647;28;20389;-58
2023/01/19 18:52:36;;;;;;;1.67;0.80;;;-4.00;99.90;;;;;;20908744;28;20358;-58
2023/01/19 19:02:38;;;;;;;1.40;0.95;;;-4.00;99.90;;;;;;20917906;28;20083;-59
2023/01/19 19:12:40;;;;;;;1.05;0.73;;;-4.40;99.90;;;;;;20913194;28;20034;-58
2023/01/19 19:22:42;;;;;;;1.70;0.75;;;-4.50;99.90;;;;;;20859535;28;20044;-58
2023/01/19 19:32:43;;;;;;;1.00;0.70;;;-4.60;99.90;;;;;;20859736;28;20504;-59
2023/01/19 19:42:45;;;;;;;2.22;0.73;;;-4.40;99.90;;;;;;20877504;28;20068;-58
2023/01/19 19:52:47;;;;;;;1.67;0.70;;;-4.40;99.90;;;;;;20899657;28;20064;-58
2023/01/19 20:02:50;;;;;;;1.92;0.60;;;-4.60;99.90;;;;;;20940411;28;20064;-58
2023/01/19 20:12:51;;;;;;;2.03;1.05;;;-4.60;99.90;;;;;;20899218;28;20029;-58
2023/01/19 20:22:53;;;;;;;1.10;0.63;;;-4.70;99.90;;;;;;20898190;28;20037;-58
2023/01/19 20:32:55;;;;;;;2.92;0.85;;;-4.80;99.90;;;;;;20939354;28;20093;-60
2023/01/19 20:42:57;;;;;;;1.58;0.90;;;-4.80;99.90;;;;;;20837036;28;20041;-60
2023/01/19 20:52:59;;;;;;;4.38;0.98;;;-4.80;99.90;;;;;;20896683;28;20032;-57
2023/01/19 21:03:01;;;;;;;4.75;0.85;;;-4.80;99.90;;;;;;20908905;28;20044;-58
2023/01/19 21:13:03;;;;;;;1.83;0.85;;;-4.80;99.90;;;;;;20872046;28;20041;-58
2023/01/19 21:23:05;;;;;;;1.38;0.50;;;-4.90;99.90;;;;;;20894946;28;20095;-58
2023/01/19 21:33:08;;;;;;;2.00;0.90;;;-5.30;99.90;;;;;;20905926;28;20429;-58
2023/01/19 21:43:12;;;;;;;1.60;0.88;;;-5.30;99.90;;;;;;20905647;28;20532;-58
2023/01/19 21:53:14;;;;;;;0.98;0.55;;;-5.30;99.90;;;;;;20904279;28;20040;-58
2023/01/19 22:03:15;;;;;;;2.05;0.60;;;-5.10;99.90;;;;;;20935280;28;20045;-58
2023/01/19 22:13:17;;;;;;;1.83;0.77;;;-5.20;99.90;;;;;;20909902;28;20098;-57
2023/01/19 22:23:19;;;;;;;2.53;0.60;;;-5.50;99.90;;;;;;20892044;28;20029;-57
2023/01/19 22:33:21;;;;;;;3.38;0.57;;;-5.30;99.90;;;;;;20934083;28;20024;-58
2023/01/19 22:43:23;;;;;;;1.50;0.70;;;-5.40;99.90;;;;;;20908726;28;20182;-58
2023/01/19 22:53:24;;;;;;;1.20;0.50;;;-5.60;99.90;;;;;;20974986;28;20039;-58
2023/01/19 23:03:27;;;;;;;1.15;0.60;;;-5.80;99.90;;;;;;20986158;28;20515;-59
2023/01/19 23:13:29;;;;;;;0.80;0.40;;;-5.70;99.90;;;;;;20892457;28;20294;-59
2023/01/19 23:23:31;;;;;;;1.92;0.80;;;-5.90;99.90;;;;;;20900409;28;20067;-59
2023/01/19 23:33:33;;;;;;;1.20;0.65;;;-5.60;99.90;;;;;;20899909;28;20254;-58
2023/01/19 23:43:35;;;;;;;4.30;0.82;;;-5.80;99.90;;;;;;20844077;28;20026;-58
2023/01/19 23:53:37;;;;;;;2.42;0.57;;;-6.00;99.90;;;;;;20906339;28;20087;-58
